Time;durP1;ratioP1;P1;durP2;ratioP2;P2;SDS_P1;SDS_P2;PMS_P1;PMS_P2;Temp;Humidity;BMP_temperature;BMP_pressure;BME280_temperature;BME280_humidity;BME280_pressure;Samples;Min_cycle;Max_cycle;Signal;HPM_P1;HPM_P2
2021/07/10 00:00:35;;;;;;;1.30;0.93;;;12.20;99.90;;;;;;2063990;28;20269;-68
2021/07/10 00:01:35;;;;;;;1.17;1.08;;;12.20;99.90;;;;;;2064063;28;20175;-72
2021/07/10 00:02:36;;;;;;;1.00;0.90;;;12.10;99.90;;;;;;2064288;28;20212;-71
2021/07/10 00:03:39;;;;;;;0.60;0.60;;;12.20;99.90;;;;;;2055600;28;20202;-72
2021/07/10 00:04:39;;;;;;;0.93;0.93;;;12.10;99.90;;;;;;2048304;28;20218;-71
2021/07/10 00:05:40;;;;;;;1.07;0.97;;;12.10;99.90;;;;;;2048170;29;20191;-73
2021/07/10 00:06:41;;;;;;;1.03;1.03;;;12.10;99.90;;;;;;2056380;28;20650;-73
2021/07/10 00:07:43;;;;;;;2.10;1.40;;;12.10;99.90;;;;;;2056276;28;20230;-73
2021/07/10 00:08:43;;;;;;;0.82;0.82;;;12.10;99.90;;;;;;2055683;28;20179;-73
2021/07/10 00:09:44;;;;;;;1.10;1.00;;;12.00;99.90;;;;;;2048376;29;20613;-69
2021/07/10 00:10:45;;;;;;;0.70;0.70;;;12.00;99.90;;;;;;2048309;29;20284;-69
2021/07/10 00:11:47;;;;;;;1.00;1.00;;;12.00;99.90;;;;;;2065381;28;20225;-70
2021/07/10 00:12:47;;;;;;;1.60;0.90;;;12.00;99.90;;;;;;2064436;28;20197;-69
2021/07/10 00:13:48;;;;;;;1.80;1.13;;;11.90;99.90;;;;;;2064306;28;20198;-69
2021/07/10 00:14:49;;;;;;;0.50;0.50;;;12.00;99.90;;;;;;2064882;28;20178;-69
2021/07/10 00:15:50;;;;;;;1.53;1.43;;;11.90;99.90;;;;;;2064165;28;20205;-69
2021/07/10 00:16:51;;;;;;;1.50;1.33;;;11.90;99.90;;;;;;2064154;28;20177;-69
2021/07/10 00:17:52;;;;;;;1.00;1.00;;;11.90;99.90;;;;;;2064998;28;20190;-69
2021/07/10 00:18:53;;;;;;;0.50;0.50;;;11.90;99.90;;;;;;2056183;28;20213;-69
2021/07/10 00:19:53;;;;;;;0.73;0.73;;;11.90;99.90;;;;;;2056250;28;20183;-69
2021/07/10 00:20:54;;;;;;;1.27;1.17;;;11.90;99.90;;;;;;2064277;28;20201;-69
2021/07/10 00:21:55;;;;;;;0.63;0.63;;;11.90;99.90;;;;;;2064873;28;20449;-69
2021/07/10 00:22:56;;;;;;;0.83;0.83;;;11.90;99.90;;;;;;2064474;28;20290;-69
2021/07/10 00:23:57;;;;;;;1.00;1.00;;;11.90;99.90;;;;;;2065009;28;20208;-69
2021/07/10 00:24:57;;;;;;;0.67;0.67;;;11.90;99.90;;;;;;2064703;28;20186;-69
2021/07/10 00:25:58;;;;;;;1.10;0.93;;;11.90;99.90;;;;;;2064857;28;20641;-69
2021/07/10 00:27:00;;;;;;;0.83;0.83;;;11.90;99.90;;;;;;2064527;28;20185;-69
2021/07/10 00:28:00;;;;;;;1.20;1.10;;;11.90;99.90;;;;;;2064615;28;20244;-68
2021/07/10 00:29:01;;;;;;;0.70;0.70;;;11.80;99.90;;;;;;2064783;28;20205;-69
2021/07/10 00:30:04;;;;;;;1.90;1.30;;;11.90;99.90;;;;;;2064851;28;20252;-70
2021/07/10 00:31:05;;;;;;;0.82;0.82;;;11.80;99.90;;;;;;2064859;28;20186;-69
2021/07/10 00:32:06;;;;;;;0.70;0.63;;;11.80;99.90;;;;;;2064531;28;20607;-71
2021/07/10 00:33:07;;;;;;;0.77;0.77;;;11.80;99.90;;;;;;2064414;28;20213;-69
2021/07/10 00:34:07;;;;;;;0.80;0.80;;;11.70;99.90;;;;;;2064781;28;20222;-69
2021/07/10 00:35:09;;;;;;;1.50;1.40;;;11.70;99.90;;;;;;2064730;28;20703;-69
2021/07/10 00:36:09;;;;;;;0.57;0.57;;;11.70;99.90;;;;;;2064707;28;20187;-69
2021/07/10 00:37:10;;;;;;;1.10;1.00;;;11.70;99.90;;;;;;2064761;28;20645;-69
2021/07/10 00:38:11;;;;;;;0.93;0.93;;;11.70;99.90;;;;;;2064648;28;20214;-69
2021/07/10 00:39:12;;;;;;;0.60;0.60;;;11.80;99.90;;;;;;2064746;28;20600;-69
2021/07/10 00:40:13;;;;;;;0.90;0.90;;;11.70;99.90;;;;;;2064559;28;20186;-69
2021/07/10 00:41:14;;;;;;;1.33;1.23;;;11.70;99.90;;;;;;2064137;28;20197;-69
2021/07/10 00:42:21;;;;;;;0.83;0.83;;;11.70;99.90;;;;;;2064180;28;20188;-69
2021/07/10 00:43:22;;;;;;;0.90;0.90;;;11.70;99.90;;;;;;2063900;28;20743;-68
2021/07/10 00:44:23;;;;;;;0.60;0.60;;;11.60;99.90;;;;;;2056084;28;20186;-70
2021/07/10 00:45:24;;;;;;;0.90;0.90;;;11.60;99.90;;;;;;2056042;28;20187;-69
2021/07/10 00:46:24;;;;;;;0.73;0.73;;;11.60;99.90;;;;;;2064729;28;20181;-64
2021/07/10 00:47:25;;;;;;;0.80;0.80;;;11.60;99.90;;;;;;2064612;28;20595;-65
2021/07/10 00:48:26;;;;;;;0.70;0.70;;;11.50;99.90;;;;;;2064669;28;20206;-65
2021/07/10 00:49:26;;;;;;;3.17;1.53;;;11.50;99.90;;;;;;2064315;28;20186;-69
2021/07/10 00:50:27;;;;;;;1.63;1.03;;;11.60;99.90;;;;;;2063847;28;20177;-68
2021/07/10 00:51:28;;;;;;;1.03;1.03;;;11.50;99.90;;;;;;2064534;28;20565;-69
2021/07/10 00:52:28;;;;;;;1.23;1.20;;;11.50;99.90;;;;;;2064378;28;20233;-68
2021/07/10 00:53:29;;;;;;;1.00;0.97;;;11.50;99.90;;;;;;2064648;28;20607;-69
2021/07/10 00:54:32;;;;;;;0.80;0.80;;;11.60;99.90;;;;;;2055941;28;20193;-69
2021/07/10 00:55:33;;;;;;;3.60;2.15;;;11.60;99.90;;;;;;2056037;28;20167;-69
2021/07/10 00:56:33;;;;;;;1.83;1.20;;;11.60;99.90;;;;;;2056053;28;20206;-68
2021/07/10 00:57:35;;;;;;;0.83;0.83;;;11.60;99.90;;;;;;2056060;28;20662;-69
2021/07/10 00:58:36;;;;;;;1.27;1.17;;;11.60;99.90;;;;;;2064071;28;20531;-69
2021/07/10 00:59:39;;;;;;;1.07;1.07;;;11.50;99.90;;;;;;2055905;28;20182;-69
2021/07/10 01:00:40;;;;;;;2.13;1.05;;;11.50;99.90;;;;;;2056104;28;20217;-69
2021/07/10 01:01:43;;;;;;;0.75;0.75;;;11.50;99.90;;;;;;2064652;28;20182;-68
2021/07/10 01:02:46;;;;;;;1.10;1.10;;;11.50;99.90;;;;;;2064644;28;20394;-69
2021/07/10 01:03:47;;;;;;;0.60;0.55;;;11.50;99.90;;;;;;2064634;28;20265;-69
2021/07/10 01:04:48;;;;;;;1.67;1.43;;;11.50;99.90;;;;;;2064721;28;20261;-68
2021/07/10 01:05:48;;;;;;;1.30;1.13;;;11.50;99.90;;;;;;2064514;28;20240;-68
2021/07/10 01:06:49;;;;;;;2.17;1.37;;;11.40;99.90;;;;;;2064664;28;20183;-69
2021/07/10 01:07:51;;;;;;;1.03;1.03;;;11.40;99.90;;;;;;2055852;28;20238;-69
2021/07/10 01:08:53;;;;;;;0.85;0.85;;;11.40;99.90;;;;;;2056184;28;20187;-68
2021/07/10 01:09:54;;;;;;;0.60;0.60;;;11.40;99.90;;;;;;2064604;28;20182;-69
2021/07/10 01:10:56;;;;;;;0.90;0.90;;;11.40;99.90;;;;;;2055561;28;20183;-69
2021/07/10 01:11:57;;;;;;;1.40;0.82;;;11.40;99.90;;;;;;2056167;28;20201;-68
2021/07/10 01:12:58;;;;;;;1.05;1.05;;;11.40;99.90;;;;;;2055770;28;20206;-69
2021/07/10 01:14:00;;;;;;;1.27;1.17;;;11.40;99.90;;;;;;2056050;28;20653;-69
2021/07/10 01:15:00;;;;;;;1.13;1.10;;;11.50;99.90;;;;;;2063919;28;20186;-69
2021/07/10 01:16:04;;;;;;;1.10;1.00;;;11.40;99.90;;;;;;2063844;28;20262;-69
2021/07/10 01:17:05;;;;;;;0.77;0.77;;;11.40;99.90;;;;;;2055996;28;20186;-69
2021/07/10 01:18:06;;;;;;;1.03;1.03;;;11.40;99.90;;;;;;2055984;28;20175;-68
2021/07/10 01:19:06;;;;;;;0.70;0.70;;;11.40;99.90;;;;;;2064532;28;20174;-68
2021/07/10 01:20:10;;;;;;;1.30;1.20;;;11.40;99.90;;;;;;2065420;28;20207;-69
2021/07/10 01:21:10;;;;;;;1.02;1.00;;;11.40;99.90;;;;;;2057448;28;20209;-68
2021/07/10 01:22:11;;;;;;;8.50;1.00;;;11.30;99.90;;;;;;2057596;28;20737;-68
2021/07/10 01:23:12;;;;;;;1.63;1.13;;;11.30;99.90;;;;;;2066211;28;20290;-69
2021/07/10 01:24:12;;;;;;;0.60;0.60;;;11.30;99.90;;;;;;2066342;28;20217;-68
2021/07/10 01:25:21;;;;;;;1.03;1.03;;;11.30;99.90;;;;;;2066189;28;20189;-68
2021/07/10 01:26:23;;;;;;;2.33;1.33;;;11.30;99.90;;;;;;2066288;28;20642;-69
2021/07/10 01:27:23;;;;;;;1.05;0.98;;;11.20;99.90;;;;;;2066016;28;20549;-69
2021/07/10 01:28:24;;;;;;;1.27;1.27;;;11.30;99.90;;;;;;2066142;28;20193;-69
2021/07/10 01:29:26;;;;;;;0.98;0.98;;;11.20;99.90;;;;;;2066146;28;20269;-68
2021/07/10 01:30:27;;;;;;;0.65;0.65;;;11.20;99.90;;;;;;2066020;28;20186;-69
2021/07/10 01:31:30;;;;;;;0.70;0.70;;;11.20;99.90;;;;;;2057523;28;20206;-68
2021/07/10 01:32:31;;;;;;;1.83;1.02;;;11.20;99.90;;;;;;2057637;28;20214;-68
2021/07/10 01:33:32;;;;;;;1.60;1.50;;;11.20;99.90;;;;;;2065556;28;20178;-69
2021/07/10 01:34:34;;;;;;;0.93;0.67;;;11.20;99.90;;;;;;2065579;28;20181;-68
2021/07/10 01:35:36;;;;;;;0.50;0.50;;;11.20;99.90;;;;;;2066031;28;20182;-69
2021/07/10 01:36:38;;;;;;;0.90;0.90;;;11.20;99.90;;;;;;2065705;28;20192;-69
2021/07/10 01:37:42;;;;;;;1.13;1.02;;;11.20;99.90;;;;;;2065511;28;20642;-69
2021/07/10 01:38:42;;;;;;;1.05;0.95;;;11.20;99.90;;;;;;2057429;28;20198;-69
2021/07/10 01:39:44;;;;;;;0.40;0.40;;;11.10;99.90;;;;;;2057640;28;20175;-68
2021/07/10 01:40:44;;;;;;;0.70;0.70;;;11.20;99.90;;;;;;2057298;28;20193;-68
2021/07/10 01:41:49;;;;;;;1.07;1.07;;;11.20;99.90;;;;;;2057427;28;20178;-68
2021/07/10 01:42:50;;;;;;;0.95;0.95;;;11.20;99.90;;;;;;2057246;28;20194;-69
2021/07/10 01:43:51;;;;;;;1.02;1.00;;;11.10;99.90;;;;;;2057643;28;20178;-68
2021/07/10 01:44:52;;;;;;;1.27;1.13;;;11.10;99.90;;;;;;2066152;28;20556;-68
2021/07/10 01:45:53;;;;;;;2.87;1.37;;;11.10;99.90;;;;;;2065940;28;20380;-69
2021/07/10 01:46:53;;;;;;;1.47;1.37;;;11.10;99.90;;;;;;2066197;28;20186;-68
2021/07/10 01:47:54;;;;;;;1.10;0.80;;;11.10;99.90;;;;;;2057159;28;20213;-68
2021/07/10 01:48:55;;;;;;;1.33;1.23;;;11.10;99.90;;;;;;2057648;28;20338;-68
2021/07/10 01:49:55;;;;;;;1.37;1.27;;;11.10;99.90;;;;;;2066131;28;20216;-68
2021/07/10 01:50:56;;;;;;;2.57;1.27;;;11.10;99.90;;;;;;2065935;28;20701;-69
2021/07/10 01:51:57;;;;;;;0.97;0.93;;;11.10;99.90;;;;;;2065673;28;20193;-69
2021/07/10 01:52:58;;;;;;;0.60;0.60;;;11.10;99.90;;;;;;2066113;28;20699;-68
2021/07/10 01:53:59;;;;;;;1.35;1.25;;;11.00;99.90;;;;;;2066165;28;20197;-69
2021/07/10 01:55:02;;;;;;;1.37;1.10;;;11.00;99.90;;;;;;2066111;28;20185;-68
2021/07/10 01:56:02;;;;;;;1.10;1.08;;;11.00;99.90;;;;;;2066014;28;20197;-68
2021/07/10 01:57:10;;;;;;;0.63;0.63;;;11.00;99.90;;;;;;2066181;28;20272;-68
2021/07/10 01:58:11;;;;;;;1.20;1.15;;;11.00;99.90;;;;;;2065972;28;20679;-68
2021/07/10 01:59:12;;;;;;;0.83;0.83;;;11.00;99.90;;;;;;2066214;28;20194;-68
2021/07/10 02:00:18;;;;;;;1.10;1.10;;;11.00;99.90;;;;;;2065843;28;20996;-69
2021/07/10 02:01:19;;;;;;;1.00;1.00;;;11.00;99.90;;;;;;2066105;28;20182;-69
2021/07/10 02:02:20;;;;;;;1.80;1.70;;;11.00;99.90;;;;;;2065857;28;20285;-68
2021/07/10 02:03:20;;;;;;;1.23;1.13;;;11.00;99.90;;;;;;2062350;28;20187;-68
2021/07/10 02:04:22;;;;;;;1.17;1.07;;;11.00;99.90;;;;;;2063643;28;20189;-68
2021/07/10 02:05:26;;;;;;;0.63;0.63;;;11.00;99.90;;;;;;2063563;28;20708;-69
2021/07/10 02:06:28;;;;;;;0.77;0.77;;;11.00;99.90;;;;;;2065340;28;20193;-69
2021/07/10 02:07:28;;;;;;;1.45;1.35;;;11.00;99.90;;;;;;2057391;28;20678;-68
2021/07/10 02:08:29;;;;;;;1.53;1.43;;;11.00;99.90;;;;;;2050134;29;20187;-68
2021/07/10 02:09:30;;;;;;;1.65;1.20;;;11.00;99.90;;;;;;2058456;28;20684;-68
2021/07/10 02:10:33;;;;;;;0.90;0.90;;;11.00;99.90;;;;;;2057690;28;20217;-70
2021/07/10 02:11:33;;;;;;;1.10;1.10;;;11.00;99.90;;;;;;2049099;29;20177;-68
2021/07/10 02:12:35;;;;;;;0.97;0.93;;;11.00;99.90;;;;;;2057217;28;20240;-67
2021/07/10 02:13:36;;;;;;;1.23;1.15;;;10.90;99.90;;;;;;2065080;28;20220;-68
2021/07/10 02:14:37;;;;;;;0.60;0.60;;;10.90;99.90;;;;;;2065279;28;20205;-68
2021/07/10 02:15:39;;;;;;;0.90;0.80;;;10.90;99.90;;;;;;2065149;28;20181;-68
2021/07/10 02:16:41;;;;;;;1.00;1.00;;;10.90;99.90;;;;;;2048966;29;20310;-68
2021/07/10 02:17:44;;;;;;;0.82;0.82;;;10.90;99.90;;;;;;2049051;28;20194;-68
2021/07/10 02:18:45;;;;;;;1.73;1.08;;;10.90;99.90;;;;;;2065222;28;20247;-68
2021/07/10 02:19:45;;;;;;;1.10;1.10;;;10.90;99.90;;;;;;2065158;28;20174;-68
2021/07/10 02:20:46;;;;;;;1.30;1.20;;;10.90;99.90;;;;;;2065089;28;20189;-68
2021/07/10 02:21:47;;;;;;;0.90;0.90;;;10.90;99.90;;;;;;2065230;28;20317;-68
2021/07/10 02:22:49;;;;;;;2.10;1.90;;;10.90;99.90;;;;;;2057654;28;20202;-68
2021/07/10 02:23:51;;;;;;;2.10;1.38;;;10.80;99.90;;;;;;2049147;29;20736;-68
2021/07/10 02:24:52;;;;;;;1.48;1.38;;;10.80;99.90;;;;;;2049295;28;20183;-68
2021/07/10 02:25:52;;;;;;;1.67;1.53;;;10.80;99.90;;;;;;2057881;28;20266;-68
2021/07/10 02:26:53;;;;;;;0.60;0.60;;;10.80;99.90;;;;;;2057784;28;20573;-68
2021/07/10 02:27:54;;;;;;;1.20;0.90;;;10.80;99.90;;;;;;2057637;28;20242;-68
2021/07/10 02:28:55;;;;;;;1.17;1.13;;;10.80;99.90;;;;;;2057712;28;20178;-68
2021/07/10 02:29:56;;;;;;;1.60;1.33;;;10.80;99.90;;;;;;2057650;28;20608;-68
2021/07/10 02:30:56;;;;;;;0.70;0.70;;;10.80;99.90;;;;;;2048687;29;20435;-68
2021/07/10 02:31:57;;;;;;;0.70;0.70;;;10.80;99.90;;;;;;2048432;28;20211;-68
2021/07/10 02:33:00;;;;;;;0.87;0.83;;;10.80;99.90;;;;;;2057620;28;20201;-68
2021/07/10 02:34:03;;;;;;;0.75;0.75;;;10.80;99.90;;;;;;2057775;28;20174;-68
2021/07/10 02:35:11;;;;;;;1.25;1.17;;;10.80;99.90;;;;;;2057610;28;20564;-68
2021/07/10 02:36:11;;;;;;;0.98;0.98;;;10.80;99.90;;;;;;2057660;28;20439;-68
2021/07/10 02:37:12;;;;;;;1.80;0.90;;;10.80;99.90;;;;;;2065008;28;20780;-68
2021/07/10 02:38:13;;;;;;;1.83;1.67;;;10.80;99.90;;;;;;2065121;28;20210;-67
2021/07/10 02:39:14;;;;;;;1.55;1.27;;;10.70;99.90;;;;;;2056938;28;20213;-68
2021/07/10 02:40:18;;;;;;;1.17;1.07;;;10.70;99.90;;;;;;2056782;28;20191;-68
2021/07/10 02:41:18;;;;;;;2.40;1.10;;;10.70;99.90;;;;;;2057574;28;20225;-67
2021/07/10 02:42:19;;;;;;;3.10;1.37;;;10.70;99.90;;;;;;2057555;28;20209;-67
2021/07/10 02:43:20;;;;;;;0.87;0.87;;;10.70;99.90;;;;;;2057558;28;20273;-67
2021/07/10 02:44:20;;;;;;;3.63;1.43;;;10.70;99.90;;;;;;2057545;28;20202;-67
2021/07/10 02:45:22;;;;;;;1.77;1.33;;;10.70;99.90;;;;;;2057517;28;20197;-67
2021/07/10 02:46:23;;;;;;;1.88;1.20;;;10.70;99.90;;;;;;2057417;28;20188;-68
2021/07/10 02:47:24;;;;;;;1.73;1.63;;;10.70;99.90;;;;;;2064906;28;20209;-67
2021/07/10 02:48:24;;;;;;;1.57;1.20;;;10.80;99.90;;;;;;2067320;28;20267;-68
2021/07/10 02:49:25;;;;;;;1.30;1.27;;;10.70;99.90;;;;;;2057426;28;20252;-67
2021/07/10 02:50:27;;;;;;;0.97;0.87;;;10.70;99.90;;;;;;2040726;29;20234;-68
2021/07/10 02:51:28;;;;;;;0.90;0.90;;;10.70;99.90;;;;;;2033270;29;20184;-68
2021/07/10 02:52:29;;;;;;;1.05;0.88;;;10.70;99.90;;;;;;2049066;28;20198;-67
2021/07/10 02:53:29;;;;;;;0.97;0.93;;;10.70;99.90;;;;;;2048738;29;20199;-67
2021/07/10 02:54:30;;;;;;;1.33;1.23;;;10.70;99.90;;;;;;2048931;29;20609;-68
2021/07/10 02:55:31;;;;;;;1.57;1.20;;;10.80;99.90;;;;;;2056684;28;20190;-67
2021/07/10 02:56:32;;;;;;;1.00;0.95;;;10.70;99.90;;;;;;2056889;28;20198;-67
2021/07/10 02:57:33;;;;;;;1.27;1.17;;;10.70;99.90;;;;;;2048922;29;20242;-68
2021/07/10 02:58:34;;;;;;;1.87;1.27;;;10.80;99.90;;;;;;2048861;29;20175;-68
2021/07/10 02:59:35;;;;;;;0.63;0.63;;;10.70;99.90;;;;;;2057363;28;20182;-67
2021/07/10 03:00:35;;;;;;;0.97;0.87;;;10.70;99.90;;;;;;2057259;28;20174;-67
2021/07/10 03:01:36;;;;;;;0.70;0.70;;;10.70;99.90;;;;;;2057254;28;20184;-67
2021/07/10 03:02:37;;;;;;;0.77;0.77;;;10.70;99.90;;;;;;2057421;28;20224;-68
2021/07/10 03:03:38;;;;;;;0.90;0.90;;;10.70;99.90;;;;;;2057407;28;20178;-67
2021/07/10 03:04:38;;;;;;;9.07;1.60;;;10.70;99.90;;;;;;2057698;28;20174;-67
2021/07/10 03:05:39;;;;;;;1.30;1.20;;;10.70;99.90;;;;;;2057344;28;20182;-68
2021/07/10 03:06:40;;;;;;;0.80;0.80;;;10.70;99.90;;;;;;2048856;29;20258;-67
2021/07/10 03:07:43;;;;;;;1.20;1.20;;;10.70;99.90;;;;;;2056664;28;20177;-69
2021/07/10 03:08:45;;;;;;;1.83;1.30;;;10.70;99.90;;;;;;2056444;28;20174;-68
2021/07/10 03:09:46;;;;;;;0.80;0.80;;;10.70;99.90;;;;;;2049057;28;20261;-69
2021/07/10 03:10:47;;;;;;;0.87;0.80;;;10.70;99.90;;;;;;2057171;28;20754;-68
2021/07/10 03:11:48;;;;;;;1.23;1.13;;;10.70;99.90;;;;;;2048716;29;20171;-68
2021/07/10 03:12:49;;;;;;;0.63;0.63;;;10.70;99.90;;;;;;2048687;28;20894;-68
2021/07/10 03:13:50;;;;;;;1.17;0.83;;;10.70;99.90;;;;;;2057540;28;20207;-69
2021/07/10 03:14:50;;;;;;;0.70;0.70;;;10.70;99.90;;;;;;2057292;28;20663;-68
2021/07/10 03:15:51;;;;;;;0.83;0.83;;;10.70;99.90;;;;;;2064888;28;20194;-68
2021/07/10 03:16:52;;;;;;;1.03;1.03;;;10.70;99.90;;;;;;2064787;28;20284;-68
2021/07/10 03:17:53;;;;;;;1.40;1.27;;;10.70;99.90;;;;;;2057364;28;20675;-68
2021/07/10 03:18:54;;;;;;;1.10;1.00;;;10.70;99.90;;;;;;2048789;29;20729;-68
2021/07/10 03:19:55;;;;;;;1.07;1.00;;;10.70;99.90;;;;;;2049105;28;20233;-69
2021/07/10 03:20:56;;;;;;;1.88;1.05;;;10.70;99.90;;;;;;2057461;28;20435;-68
2021/07/10 03:21:57;;;;;;;0.97;0.97;;;10.70;99.90;;;;;;2048844;29;20203;-68
2021/07/10 03:22:58;;;;;;;0.73;0.73;;;10.70;99.90;;;;;;2048605;28;20296;-68
2021/07/10 03:23:59;;;;;;;1.38;0.93;;;10.70;99.90;;;;;;2057340;28;20264;-68
2021/07/10 03:25:03;;;;;;;0.97;0.97;;;10.70;99.90;;;;;;2048487;29;20674;-69
2021/07/10 03:26:04;;;;;;;0.73;0.73;;;10.70;99.90;;;;;;2049186;28;20297;-68
2021/07/10 03:27:05;;;;;;;1.23;1.13;;;10.60;99.90;;;;;;2057135;28;20269;-69
2021/07/10 03:28:05;;;;;;;0.73;0.70;;;10.60;99.90;;;;;;2057206;28;20258;-69
2021/07/10 03:29:06;;;;;;;1.30;1.10;;;10.60;99.90;;;;;;2057273;28;20187;-69
2021/07/10 03:30:10;;;;;;;0.93;0.83;;;10.60;99.90;;;;;;2056898;28;20202;-69
2021/07/10 03:31:11;;;;;;;1.90;1.77;;;10.60;99.90;;;;;;2057047;28;20184;-69
2021/07/10 03:32:11;;;;;;;2.03;1.23;;;10.60;99.90;;;;;;2057230;28;20229;-68
2021/07/10 03:33:12;;;;;;;0.93;0.93;;;10.60;99.90;;;;;;2057357;28;20649;-69
2021/07/10 03:34:13;;;;;;;0.93;0.93;;;10.60;99.90;;;;;;2057116;28;20660;-68
2021/07/10 03:35:15;;;;;;;1.43;1.33;;;10.60;99.90;;;;;;2057165;28;20344;-68
2021/07/10 03:36:16;;;;;;;0.88;0.88;;;10.60;99.90;;;;;;2048636;29;20211;-68
2021/07/10 03:37:17;;;;;;;0.97;0.93;;;10.60;99.90;;;;;;2040497;29;20198;-68
2021/07/10 03:38:18;;;;;;;1.07;1.07;;;10.60;99.90;;;;;;2056582;28;20183;-69
2021/07/10 03:39:19;;;;;;;0.70;0.70;;;10.60;99.90;;;;;;2064451;28;20221;-68
2021/07/10 03:40:25;;;;;;;1.90;1.43;;;10.60;99.90;;;;;;2056955;28;20281;-68
2021/07/10 03:41:26;;;;;;;1.52;1.40;;;10.60;99.90;;;;;;2048536;29;20647;-68
2021/07/10 03:42:26;;;;;;;1.43;1.33;;;10.60;99.90;;;;;;2048723;28;20234;-68
2021/07/10 03:43:27;;;;;;;0.70;0.70;;;10.60;99.90;;;;;;2056145;28;20245;-69
2021/07/10 03:44:28;;;;;;;1.45;1.35;;;10.60;99.90;;;;;;2056927;28;20585;-68
2021/07/10 03:45:29;;;;;;;1.20;1.10;;;10.60;99.90;;;;;;2057047;28;20191;-68
2021/07/10 03:46:30;;;;;;;1.50;1.40;;;10.60;99.90;;;;;;2057381;28;20674;-68
2021/07/10 03:47:31;;;;;;;0.50;0.50;;;10.60;99.90;;;;;;2056983;28;20652;-69
2021/07/10 03:48:32;;;;;;;1.23;1.13;;;10.60;99.90;;;;;;2057146;28;20232;-68
2021/07/10 03:49:32;;;;;;;1.20;1.20;;;10.60;99.90;;;;;;2057137;28;20225;-68
2021/07/10 03:50:34;;;;;;;2.43;0.93;;;10.60;99.90;;;;;;2056899;28;20198;-69
2021/07/10 03:51:34;;;;;;;2.10;1.10;;;10.60;99.90;;;;;;2048572;29;20253;-69
2021/07/10 03:52:36;;;;;;;1.40;1.30;;;10.70;99.90;;;;;;2048462;28;20238;-68
2021/07/10 03:53:36;;;;;;;1.17;1.08;;;10.70;99.90;;;;;;2048428;29;20183;-69
2021/07/10 03:54:37;;;;;;;0.90;0.90;;;10.80;99.90;;;;;;2048472;28;20182;-68
2021/07/10 03:55:38;;;;;;;0.47;0.47;;;10.80;99.90;;;;;;2056998;28;20182;-69
2021/07/10 03:56:39;;;;;;;1.43;0.87;;;10.80;99.90;;;;;;2056970;28;20188;-68
2021/07/10 03:57:40;;;;;;;0.87;0.87;;;10.80;99.90;;;;;;2048434;29;20234;-68
2021/07/10 03:58:41;;;;;;;1.33;1.05;;;10.80;99.90;;;;;;2056439;28;20189;-68
2021/07/10 03:59:42;;;;;;;0.97;0.97;;;10.80;99.90;;;;;;2056652;28;20193;-70
2021/07/10 04:00:42;;;;;;;1.03;1.03;;;10.90;99.90;;;;;;2056334;28;20313;-68
2021/07/10 04:01:45;;;;;;;0.93;0.93;;;10.90;99.90;;;;;;2064422;28;20178;-68
2021/07/10 04:02:46;;;;;;;0.98;0.98;;;10.90;99.90;;;;;;2056921;28;20202;-69
2021/07/10 04:03:47;;;;;;;0.83;0.83;;;10.90;99.90;;;;;;2048527;28;20235;-69
2021/07/10 04:04:47;;;;;;;1.57;1.30;;;10.90;99.90;;;;;;2048362;28;20194;-68
2021/07/10 04:05:48;;;;;;;0.57;0.57;;;10.90;99.90;;;;;;2057239;28;20170;-69
2021/07/10 04:06:49;;;;;;;1.33;1.23;;;10.90;99.90;;;;;;2056502;28;20692;-69
2021/07/10 04:07:50;;;;;;;1.37;0.97;;;11.00;99.90;;;;;;2048221;29;20202;-69
2021/07/10 04:08:51;;;;;;;1.45;1.30;;;11.00;99.90;;;;;;2040336;29;20192;-69
2021/07/10 04:09:51;;;;;;;0.93;0.93;;;11.00;99.90;;;;;;2048272;29;20291;-68
2021/07/10 04:10:52;;;;;;;1.07;1.07;;;11.00;99.90;;;;;;2056523;28;20179;-69
2021/07/10 04:11:53;;;;;;;1.40;1.30;;;11.00;99.90;;;;;;2056790;28;20261;-68
2021/07/10 04:12:54;;;;;;;0.70;0.70;;;11.00;99.90;;;;;;2056012;28;20208;-68
2021/07/10 04:13:54;;;;;;;1.07;1.07;;;11.10;99.90;;;;;;2056157;28;20741;-69
2021/07/10 04:15:00;;;;;;;0.77;0.77;;;11.10;99.90;;;;;;2056674;28;20232;-68
2021/07/10 04:16:00;;;;;;;1.17;1.15;;;11.20;99.90;;;;;;2048125;29;20588;-68
2021/07/10 04:17:04;;;;;;;1.57;1.00;;;11.20;99.90;;;;;;2047947;29;20182;-68
2021/07/10 04:18:05;;;;;;;1.58;1.33;;;11.30;99.90;;;;;;2056900;28;20646;-68
2021/07/10 04:19:06;;;;;;;1.17;1.10;;;11.40;99.90;;;;;;2056272;28;20175;-68
2021/07/10 04:20:09;;;;;;;1.20;1.10;;;11.50;99.90;;;;;;2055939;28;20178;-68
2021/07/10 04:21:10;;;;;;;1.45;1.27;;;11.50;99.90;;;;;;2056102;28;20237;-68
2021/07/10 04:22:10;;;;;;;1.60;1.37;;;11.50;99.90;;;;;;2048113;28;20279;-69
2021/07/10 04:23:11;;;;;;;1.63;1.43;;;11.50;99.90;;;;;;2048143;29;20215;-69
2021/07/10 04:24:12;;;;;;;1.97;1.30;;;11.60;99.90;;;;;;2056809;28;20214;-68
2021/07/10 04:25:16;;;;;;;0.80;0.80;;;11.70;99.90;;;;;;2056690;28;20560;-69
2021/07/10 04:26:17;;;;;;;1.00;0.82;;;11.70;99.90;;;;;;2048242;29;20320;-69
2021/07/10 04:27:18;;;;;;;1.40;1.15;;;11.70;99.90;;;;;;2048032;28;20203;-69
2021/07/10 04:28:19;;;;;;;0.80;0.80;;;11.70;99.90;;;;;;2056500;28;20249;-68
2021/07/10 04:29:20;;;;;;;1.13;1.03;;;11.80;99.90;;;;;;2056505;28;20557;-69
2021/07/10 04:30:21;;;;;;;1.53;1.43;;;11.80;99.90;;;;;;2056475;28;20247;-68
2021/07/10 04:31:22;;;;;;;1.08;1.08;;;11.90;99.90;;;;;;2056526;28;20667;-68
2021/07/10 04:32:23;;;;;;;2.07;1.53;;;11.80;99.90;;;;;;2056471;28;20288;-68
2021/07/10 04:33:23;;;;;;;1.10;1.00;;;11.90;99.90;;;;;;2056432;28;20179;-68
2021/07/10 04:34:24;;;;;;;1.53;1.43;;;11.90;99.90;;;;;;2056149;28;20182;-69
2021/07/10 04:35:25;;;;;;;0.97;0.97;;;12.00;99.90;;;;;;2056115;28;20182;-68
2021/07/10 04:36:25;;;;;;;1.07;1.07;;;12.00;99.90;;;;;;2056750;28;20293;-68
2021/07/10 04:37:26;;;;;;;1.23;1.13;;;12.20;99.90;;;;;;2056614;28;20188;-68
2021/07/10 04:38:27;;;;;;;1.50;1.40;;;12.20;99.90;;;;;;2056059;28;20773;-68
2021/07/10 04:39:27;;;;;;;1.00;1.00;;;12.20;99.90;;;;;;2048044;29;20188;-67
2021/07/10 04:40:28;;;;;;;1.30;1.20;;;12.30;99.90;;;;;;2047925;29;20717;-68
2021/07/10 04:41:29;;;;;;;1.67;1.00;;;12.40;99.90;;;;;;2056749;28;20502;-68
2021/07/10 04:42:30;;;;;;;1.30;1.20;;;12.40;99.90;;;;;;2048041;28;20208;-69
2021/07/10 04:43:32;;;;;;;1.13;1.03;;;12.50;99.90;;;;;;2048008;29;20183;-68
2021/07/10 04:44:33;;;;;;;1.10;1.08;;;12.50;99.90;;;;;;2055976;28;20179;-68
2021/07/10 04:45:33;;;;;;;1.73;1.63;;;12.50;99.90;;;;;;2056023;28;20183;-68
2021/07/10 04:46:34;;;;;;;1.40;1.30;;;12.60;99.90;;;;;;2055849;28;20191;-68
2021/07/10 04:47:35;;;;;;;0.70;0.70;;;12.60;99.90;;;;;;2056047;28;20717;-68
2021/07/10 04:48:36;;;;;;;1.23;1.15;;;12.70;99.90;;;;;;2047857;29;20199;-68
2021/07/10 04:49:37;;;;;;;0.87;0.83;;;12.70;99.90;;;;;;2048214;29;20254;-68
2021/07/10 04:50:38;;;;;;;1.95;1.75;;;12.70;99.90;;;;;;2055889;28;20693;-68
2021/07/10 04:51:38;;;;;;;2.77;1.63;;;12.70;99.90;;;;;;2056073;28;20203;-68
2021/07/10 04:52:42;;;;;;;0.97;0.87;;;12.80;99.90;;;;;;2055838;28;20226;-68
2021/07/10 04:53:42;;;;;;;1.10;1.00;;;12.80;99.90;;;;;;2056064;28;20181;-68
2021/07/10 04:54:43;;;;;;;1.00;0.93;;;12.80;99.90;;;;;;2056107;28;20266;-68
2021/07/10 04:55:44;;;;;;;0.80;0.80;;;12.80;99.90;;;;;;2057309;28;20230;-68
2021/07/10 04:56:45;;;;;;;0.80;0.80;;;12.80;99.90;;;;;;2056552;28;20175;-68
2021/07/10 04:57:46;;;;;;;1.47;1.37;;;12.80;99.90;;;;;;2048079;29;20259;-69
2021/07/10 04:58:47;;;;;;;1.38;1.27;;;12.80;99.90;;;;;;2054964;28;20182;-69
2021/07/10 04:59:48;;;;;;;0.83;0.83;;;12.70;99.90;;;;;;2064564;28;20198;-69
2021/07/10 05:00:49;;;;;;;1.33;1.23;;;12.70;99.90;;;;;;2055615;28;20179;-68
2021/07/10 05:01:50;;;;;;;1.73;1.63;;;12.70;99.90;;;;;;2056094;28;20206;-68
2021/07/10 05:02:50;;;;;;;0.97;0.97;;;12.80;99.90;;;;;;2064321;28;20194;-69
2021/07/10 05:03:51;;;;;;;0.73;0.73;;;12.80;99.90;;;;;;2064624;28;20178;-69
2021/07/10 05:04:52;;;;;;;2.27;1.50;;;12.70;99.90;;;;;;2063887;28;20771;-69
2021/07/10 05:05:52;;;;;;;1.23;1.13;;;12.70;99.90;;;;;;2064060;28;20305;-68
2021/07/10 05:06:53;;;;;;;0.67;0.67;;;12.70;99.90;;;;;;2064479;28;20189;-69
2021/07/10 05:07:54;;;;;;;2.10;1.53;;;12.70;99.90;;;;;;2064438;28;20210;-69
2021/07/10 05:08:55;;;;;;;1.67;1.57;;;12.70;99.90;;;;;;2064380;28;20182;-68
2021/07/10 05:09:55;;;;;;;0.83;0.83;;;12.70;99.90;;;;;;2063772;28;20183;-69
2021/07/10 05:10:56;;;;;;;0.70;0.70;;;12.70;99.90;;;;;;2063665;28;20178;-68
2021/07/10 05:11:57;;;;;;;0.90;0.90;;;12.70;99.90;;;;;;2064556;28;20269;-68
2021/07/10 05:12:57;;;;;;;1.43;1.10;;;12.70;99.90;;;;;;2055582;28;20290;-68
2021/07/10 05:13:59;;;;;;;1.50;1.40;;;12.70;99.90;;;;;;2056029;28;20621;-68
2021/07/10 05:15:00;;;;;;;0.85;0.85;;;12.70;99.90;;;;;;2064359;28;20174;-68
2021/07/10 05:16:00;;;;;;;1.10;1.10;;;12.80;99.90;;;;;;2063820;28;20185;-69
2021/07/10 05:17:01;;;;;;;1.57;1.17;;;12.80;99.90;;;;;;2055692;28;20182;-68
2021/07/10 05:18:03;;;;;;;1.43;1.33;;;12.80;99.90;;;;;;2055850;28;20183;-68
2021/07/10 05:19:05;;;;;;;0.98;0.98;;;12.80;99.90;;;;;;2055706;28;20198;-68